Sweeney Granite Mountains, California Weather observations

Data are for 10 minute period ending at time listed.
 Day   Time   Solar   Ave.   Ave.  Ave.  Vector  Max.   Baro.   Total    
  of    of     Rad.   Air    Rel.  Wind   Wind   Wind  Press.  Precip.   
Year   Day            Temp.  Hum.  Speed  Dir.   Gust                    
2016   (PST)  Kw/m2    F      %     mph   deg.    mph    mb.     in.     
-------------------------------------------------------------------------
 177    0:00   0.00   74.2    13    2.3   281     3.6   868.5    0.00 
 177    0:10   0.00   74.7    13    4.4   282     5.3   868.5    0.00 
 177    0:20   0.00   76.6    13    4.6   278     5.5   868.5    0.00 
 177    0:30   0.00   76.3    13    5.3   277     6.0   868.5    0.00 
 177    0:40   0.00   76.0    13    5.5   279     6.4   868.5    0.00 
 177    0:50   0.00   76.5    13    4.6   280     6.0   868.5    0.00 
 177    1:00   0.00   76.4    13    4.0   272     5.0   868.5    0.00 
 177    1:10   0.00   74.5    14    4.0   281     5.6   868.4    0.00 
 177    1:20   0.00   75.9    13    4.4   280     5.3   868.3    0.00 
 177    1:30   0.00   76.8    13    4.3   271     5.3   868.3    0.00 
 177    1:40   0.00   75.7    13    3.6   279     4.7   868.3    0.00 
 177    1:50   0.00   75.9    14    4.2   282     5.3   868.3    0.00 
 177    2:00   0.00   74.0    16    4.9   281     6.1   868.3    0.00 
 177    2:10   0.00   76.4    16    4.0   278     5.2   868.3    0.00 
 177    2:20   0.00   73.0    18    3.6   279     5.1   868.3    0.00 
 177    2:30   0.00   72.8    19    3.8   276     4.7   868.3    0.00 
 177    2:40   0.00   73.1    19    3.4   280     4.4   868.2    0.00 
 177    2:50   0.00   73.0    20    3.3   284     4.2   868.3    0.00 
 177    3:00   0.00   74.6    19    2.6   286     4.9   868.3    0.00 
 177    3:10   0.00   74.6    19    3.6   282     4.8   868.3    0.00 
 177    3:20   0.00   72.3    20    4.6   278     5.7   868.3    0.00 
 177    3:30   0.00   74.4    18    4.9   276     6.0   868.3    0.00 
 177    3:40   0.00   73.1    18    4.9   279     5.8   868.4    0.00 
 177    3:50   0.00   72.8    18    4.5   280     5.6   868.4    0.00 
 177    4:00   0.00   71.5    19    3.9   284     4.9   868.5    0.00 
 177    4:10   0.00   70.6    20    4.7   275     5.8   868.5    0.00 
 177    4:20   0.00   71.8    19    4.7   277     5.5   868.5    0.00 
 177    4:30   0.00   72.3    19    4.5   282     5.0   868.6    0.00 
 177    4:40   0.00   70.8    21    5.2   282     5.7   868.7    0.00 
 177    4:50   0.00   71.3    21    4.1   292     5.4   868.8    0.00 
 177    5:00   0.01   71.5    21    3.2   284     4.0   868.8    0.00 
 177    5:10   0.01   73.4    20    1.0   288     3.3   869.0    0.00 
 177    5:20   0.01   71.5    21    2.0   281     3.6   869.1    0.00 
 177    5:30   0.03   74.2    20    3.2   280     4.0   869.3    0.00 
 177    5:40   0.03   73.3    21    1.7   299     3.6   869.3    0.00 
 177    5:50   0.16   77.6    17    0.6    81     1.8   869.3    0.00 
 177    6:00   0.19   81.9    16    0.6   285     2.6   869.5    0.00 
 177    6:10   0.23   81.4    15    2.1   294     2.5   869.6    0.00 
 177    6:20   0.26   84.7    13    1.1    37     3.0   869.7    0.00 
 177    6:30   0.30   86.2    11    3.6   110     5.8   869.8    0.00 
 177    6:40   0.33   85.6    11    3.3   110     5.0   869.9    0.00 
 177    6:50   0.37   85.9    11    4.6   108     6.7   870.0    0.00 
 177    7:00   0.41   86.6    10    3.9    91     6.6   870.1    0.00 
 177    7:10   0.44   86.7    10    3.7    99     6.6   870.2    0.00 
 177    7:20   0.48   86.9    10    4.2   125     7.7   870.2    0.00 
 177    7:30   0.51   87.2    10    4.5   119     8.3   870.2    0.00 
 177    7:40   0.54   86.6    10    6.0   106     9.1   870.3    0.00 
 177    7:50   0.57   87.4    10    5.4    96     8.8   870.3    0.00 
 177    8:00   0.61   87.1    10    6.3   106     9.1   870.3    0.00 
 177    8:10   0.64   87.2    10    6.8    99    10.4   870.4    0.00 
 177    8:20   0.67   86.6    10    7.8   106    11.0   870.4    0.00 
 177    8:30   0.70   87.4    10    6.0   106    10.7   870.5    0.00 
 177    8:40   0.74   87.6    10    5.4   102    10.0   870.5    0.00 
 177    8:50   0.76   87.8    10    5.3   116    10.2   870.5    0.00 
 177    9:00   0.78   87.6    10    6.8   100    10.4   870.5    0.00 
 177    9:10   0.80   87.3    10    6.1   112    11.2   870.6    0.00 
 177    9:20   0.83   87.6    10    7.0    96    12.9   870.6    0.00 
 177    9:30   0.85   87.8    10    6.1    94    11.0   870.7    0.00 
 177    9:40   0.88   88.2    10    6.8   102    11.4   870.7    0.00 
 177    9:50   0.90   88.0    10    8.5   118    13.2   870.7    0.00 
 177   10:00   0.92   87.5    10    8.2   131    12.2   870.7    0.00 
 177   10:10   0.93   87.4    10    7.8   129    14.5   870.7    0.00 
 177   10:20   0.95   87.6    10    6.3   128    13.4   870.7    0.00 
 177   10:30   0.96   88.1    10    7.5   116    11.5   870.7    0.00 
 177   10:40   0.98   88.8     9    6.3   118    12.1   870.7    0.00 
 177   10:50   0.99   88.7     9    6.5   121    11.9   870.7    0.00 
 177   11:00   1.00   88.9     9    5.7   113    11.4   870.7    0.00 
 177   11:10   1.01   88.6    10    4.8   147    15.1   870.7    0.00 
 177   11:20   1.01   89.4     9    5.1   127    13.2   870.6    0.00 
 177   11:30   1.02   89.4     9    6.4   113    14.4   870.6    0.00 
 177   11:40   1.01   90.0     9    5.5   111    13.8   870.6    0.00 
 177   11:50   1.02   90.1     9    8.1   119    13.3   870.6    0.00 
 177   12:00   1.01   89.7     9    6.7   119    13.2   870.5    0.00 
 177   12:10   1.01   90.6     9    5.3   121    13.4   870.5    0.00 
 177   12:20   0.99   91.1     9    6.7   130    13.8   870.4    0.00 
 177   12:30   1.00   89.8    10    4.6   186    12.3   870.4    0.00 
 177   12:40   1.00   90.8     9    5.7   173    16.5   870.3    0.00 
 177   12:50   0.99   90.8     9    7.4   134    16.4   870.3    0.00 
 177   13:00   0.98   90.3    10    7.0   149    15.8   870.3    0.00 
 177   13:10   0.97   91.0    10    7.5   158    18.1   870.2    0.00 
 177   13:20   0.96   90.9    10    6.1   105    12.9   870.2    0.00 
 177   13:30   0.94   91.7    11    6.9   134    13.5   870.2    0.00 
 177   13:40   0.94   90.6    11    7.7   115    15.6   870.1    0.00 
 177   13:50   0.92   91.4    11    5.7   116    12.7   870.0    0.00 
 177   14:00   0.90   91.3    11    8.4   124    14.5   869.9    0.00 
 177   14:10   0.88   91.5    10    5.3   139    11.5   869.9    0.00 
 177   14:20   0.86   92.1    10    7.6   112    14.1   869.8    0.00 
 177   14:30   0.84   92.0    10    6.7   121    11.9   869.8    0.00 
 177   14:40   0.81   92.3    10    4.3    89    11.2   869.7    0.00 
 177   14:50   0.78   92.5     9    9.0   126    15.6   869.6    0.00 
 177   15:00   0.76   91.4     9    6.5   126    12.3   869.6    0.00 
 177   15:10   0.73   91.8     9    5.7   134    14.4   869.5    0.00 
 177   15:20   0.70   91.7     9    6.8   121    10.7   869.5    0.00 
 177   15:30   0.67   91.9     8    6.7   124    15.5   869.4    0.00 
 177   15:40   0.63   93.5     8    3.3   120    11.8   869.3    0.00 
 177   15:50   0.60   92.5    10    7.2   115    16.1   869.3    0.00 
 177   16:00   0.57   92.6     9    3.4   240     8.9   869.2    0.00 
 177   16:10   0.54   93.2     9    3.8    76    11.8   869.0    0.00 
 177   16:20   0.50   91.7    10    6.8   122    13.8   868.9    0.00 
 177   16:30   0.46   92.0    10    7.0   117    11.6   868.8    0.00 
 177   16:40   0.43   92.3    10    6.0   124    11.4   868.7    0.00 
 177   16:50   0.40   91.7    10    3.3   169     8.8   868.6    0.00 
 177   17:00   0.36   92.4    10    4.2   156    10.4   868.6    0.00 
 177   17:10   0.32   91.9    10    3.6   192    10.2   868.7    0.00 
 177   17:20   0.29   92.0    10    5.2   144     9.1   868.7    0.00 
 177   17:30   0.26   91.1    10    4.2   178     9.6   868.7    0.00 
 177   17:40   0.22   91.6    10    3.7   159     8.0   868.7    0.00 
 177   17:50   0.18   91.2    10    2.4   174     6.2   868.8    0.00 
 177   18:00   0.03   90.1    10    4.0   222     8.6   868.8    0.00 
 177   18:10   0.01   87.6    11    2.3   131     6.4   868.9    0.00 
 177   18:20   0.01   86.8    11    2.5    96     5.6   868.9    0.00 
 177   18:30   0.01   86.3    11    1.7   154     4.7   869.0    0.00 
 177   18:40   0.01   86.0    11    1.5    27     3.5   869.1    0.00 
 177   18:50   0.00   85.6    11    1.6   215     5.8   869.2    0.00 
 177   19:00   0.00   85.3    11    1.1   218     3.6   869.4    0.00 
 177   19:10   0.00   84.5    11    1.7   279     6.4   869.4    0.00 
 177   19:20   0.00   83.4    11    3.2   241     7.0   869.5    0.00 
 177   19:30   0.00   84.4    11    4.3   237     6.9   869.6    0.00 
 177   19:40   0.00   83.9    11    3.4   243     7.6   869.6    0.00 
 177   19:50   0.00   81.2    12    1.9   260     3.5   869.8    0.00 
 177   20:00   0.00   80.2    12    1.7   292     3.4   869.8    0.00 
 177   20:10   0.00   79.9    12    2.8   284     3.6   869.9    0.00 
 177   20:20   0.00   79.0    13    2.3   288     3.1   869.9    0.00 
 177   20:30   0.00   80.4    13    3.0   297     3.6   869.9    0.00 
 177   20:40   0.00   80.0    13    2.7   289     3.9   870.0    0.00 
 177   20:50   0.00   79.5    13    2.9   283     3.9   870.0    0.00 
 177   21:00   0.00   78.6    14    2.7   278     4.1   870.1    0.00 
 177   21:10   0.00   78.8    13    1.8   288     2.5   870.1    0.00 
 177   21:20   0.00   80.3    12    0.9   294     2.9   870.2    0.00 
 177   21:30   0.00   80.2    12    0.8    34     1.8   870.3    0.00 
 177   21:40   0.00   80.0    13    0.7    20     2.3   870.3    0.00 
 177   21:50   0.00   80.9    12    2.1   292     3.4   870.4    0.00 
 177   22:00   0.00   78.4    13    2.3   282     3.1   870.4    0.00 
 177   22:10   0.00   76.9    14    2.7   283     3.8   870.4    0.00 
 177   22:20   0.00   77.4    14    1.1   283     3.0   870.4    0.00 
 177   22:30   0.00   79.7    14    1.7   333     4.3   870.4    0.00 
 177   22:40   0.00   80.4    15    1.0   260     3.4   870.5    0.00 
 177   22:50   0.00   79.7    15    1.0   294     3.4   870.5    0.00 
 177   23:00   0.00   76.6    16    3.8   286     5.1   870.5    0.00 

Return to Sweeney Granite Mountains graphs page.


Western Regional Climate Center,wrcc@dri.edu